sensor_id;sensor_type;location;lat;lon;timestamp;temperature;humidity
23540;DHT22;11947;50.810;4.394;2022-08-20T00:01:06;18.70;99.90
23540;DHT22;11947;50.810;4.394;2022-08-20T00:03:37;18.70;99.90
23540;DHT22;11947;50.810;4.394;2022-08-20T00:06:07;18.70;99.90
23540;DHT22;11947;50.810;4.394;2022-08-20T00:08:33;18.70;99.90
23540;DHT22;11947;50.810;4.394;2022-08-20T00:11:00;18.60;99.90
23540;DHT22;11947;50.810;4.394;2022-08-20T00:13:34;18.60;99.90
23540;DHT22;11947;50.810;4.394;2022-08-20T00:16:02;18.50;99.90
23540;DHT22;11947;50.810;4.394;2022-08-20T00:18:29;18.50;99.90
23540;DHT22;11947;50.810;4.394;2022-08-20T00:20:56;18.50;99.90
23540;DHT22;11947;50.810;4.394;2022-08-20T00:23:23;18.50;99.90
23540;DHT22;11947;50.810;4.394;2022-08-20T00:25:49;18.50;99.90
23540;DHT22;11947;50.810;4.394;2022-08-20T00:28:15;18.50;99.90
23540;DHT22;11947;50.810;4.394;2022-08-20T00:30:42;18.50;99.90
23540;DHT22;11947;50.810;4.394;2022-08-20T00:33:12;18.60;99.90
23540;DHT22;11947;50.810;4.394;2022-08-20T00:35:49;18.50;99.90
23540;DHT22;11947;50.810;4.394;2022-08-20T00:38:17;18.60;99.90
23540;DHT22;11947;50.810;4.394;2022-08-20T00:40:53;18.70;99.90
23540;DHT22;11947;50.810;4.394;2022-08-20T00:43:38;18.60;99.90
23540;DHT22;11947;50.810;4.394;2022-08-20T00:46:10;18.50;99.90
23540;DHT22;11947;50.810;4.394;2022-08-20T00:48:39;18.40;99.90
23540;DHT22;11947;50.810;4.394;2022-08-20T00:51:42;18.30;99.90
23540;DHT22;11947;50.810;4.394;2022-08-20T00:56:39;18.20;99.90
23540;DHT22;11947;50.810;4.394;2022-08-20T00:59:09;18.10;99.90
23540;DHT22;11947;50.810;4.394;2022-08-20T01:01:38;18.10;99.90
23540;DHT22;11947;50.810;4.394;2022-08-20T01:04:04;18.10;99.90
23540;DHT22;11947;50.810;4.394;2022-08-20T01:06:31;18.00;99.90
23540;DHT22;11947;50.810;4.394;2022-08-20T01:08:57;17.80;99.90
23540;DHT22;11947;50.810;4.394;2022-08-20T01:11:27;17.80;99.90
23540;DHT22;11947;50.810;4.394;2022-08-20T01:14:02;17.90;99.90
23540;DHT22;11947;50.810;4.394;2022-08-20T01:16:50;18.00;99.90
23540;DHT22;11947;50.810;4.394;2022-08-20T01:19:20;17.90;99.90
23540;DHT22;11947;50.810;4.394;2022-08-20T01:21:49;18.00;99.90
23540;DHT22;11947;50.810;4.394;2022-08-20T01:24:27;17.90;99.90
23540;DHT22;11947;50.810;4.394;2022-08-20T01:26:55;17.80;99.90
23540;DHT22;11947;50.810;4.394;2022-08-20T01:29:24;17.80;99.90
23540;DHT22;11947;50.810;4.394;2022-08-20T01:31:54;17.70;99.90
23540;DHT22;11947;50.810;4.394;2022-08-20T01:34:25;17.60;99.90
23540;DHT22;11947;50.810;4.394;2022-08-20T01:36:54;17.60;99.90
23540;DHT22;11947;50.810;4.394;2022-08-20T01:39:23;17.70;99.90
23540;DHT22;11947;50.810;4.394;2022-08-20T01:42:22;17.60;99.90
23540;DHT22;11947;50.810;4.394;2022-08-20T01:44:51;17.60;99.90
23540;DHT22;11947;50.810;4.394;2022-08-20T01:47:29;17.60;99.90
23540;DHT22;11947;50.810;4.394;2022-08-20T01:49:58;17.70;99.90
23540;DHT22;11947;50.810;4.394;2022-08-20T01:55:03;17.70;99.90
23540;DHT22;11947;50.810;4.394;2022-08-20T01:57:29;17.50;99.90
23540;DHT22;11947;50.810;4.394;2022-08-20T01:59:55;17.50;99.90
23540;DHT22;11947;50.810;4.394;2022-08-20T02:02:21;17.40;99.90
23540;DHT22;11947;50.810;4.394;2022-08-20T02:04:47;17.30;99.90
23540;DHT22;11947;50.810;4.394;2022-08-20T02:07:18;17.20;99.90
23540;DHT22;11947;50.810;4.394;2022-08-20T02:09:45;17.20;99.90
23540;DHT22;11947;50.810;4.394;2022-08-20T02:12:12;17.30;99.90
23540;DHT22;11947;50.810;4.394;2022-08-20T02:14:40;17.20;99.90
23540;DHT22;11947;50.810;4.394;2022-08-20T02:17:06;17.30;99.90
23540;DHT22;11947;50.810;4.394;2022-08-20T02:19:36;17.30;99.90
23540;DHT22;11947;50.810;4.394;2022-08-20T02:22:13;17.20;99.90
23540;DHT22;11947;50.810;4.394;2022-08-20T02:24:40;17.10;99.90
23540;DHT22;11947;50.810;4.394;2022-08-20T02:27:06;17.20;99.90
23540;DHT22;11947;50.810;4.394;2022-08-20T02:29:31;17.20;99.90
23540;DHT22;11947;50.810;4.394;2022-08-20T02:31:58;17.20;99.90
23540;DHT22;11947;50.810;4.394;2022-08-20T02:34:24;17.20;99.90
23540;DHT22;11947;50.810;4.394;2022-08-20T02:36:50;17.10;99.90
23540;DHT22;11947;50.810;4.394;2022-08-20T02:39:16;17.10;99.90
23540;DHT22;11947;50.810;4.394;2022-08-20T02:41:42;17.10;99.90
23540;DHT22;11947;50.810;4.394;2022-08-20T02:44:08;17.10;99.90
23540;DHT22;11947;50.810;4.394;2022-08-20T02:46:34;16.90;99.90
23540;DHT22;11947;50.810;4.394;2022-08-20T02:49:00;16.90;99.90
23540;DHT22;11947;50.810;4.394;2022-08-20T02:51:26;16.80;99.90
23540;DHT22;11947;50.810;4.394;2022-08-20T02:53:52;16.80;99.90
23540;DHT22;11947;50.810;4.394;2022-08-20T02:56:18;16.80;99.90
23540;DHT22;11947;50.810;4.394;2022-08-20T02:58:44;16.90;99.90
23540;DHT22;11947;50.810;4.394;2022-08-20T03:01:13;16.90;99.90
23540;DHT22;11947;50.810;4.394;2022-08-20T03:03:40;16.80;99.90
23540;DHT22;11947;50.810;4.394;2022-08-20T03:06:07;16.80;99.90
23540;DHT22;11947;50.810;4.394;2022-08-20T03:08:34;16.80;99.90
23540;DHT22;11947;50.810;4.394;2022-08-20T03:11:01;16.90;99.90
23540;DHT22;11947;50.810;4.394;2022-08-20T03:13:27;16.90;99.90
23540;DHT22;11947;50.810;4.394;2022-08-20T03:15:55;16.90;99.90
23540;DHT22;11947;50.810;4.394;2022-08-20T03:18:23;16.90;99.90
23540;DHT22;11947;50.810;4.394;2022-08-20T03:20:49;16.80;99.90
23540;DHT22;11947;50.810;4.394;2022-08-20T03:23:16;16.70;99.90
23540;DHT22;11947;50.810;4.394;2022-08-20T03:25:42;16.60;99.90
23540;DHT22;11947;50.810;4.394;2022-08-20T03:28:08;16.60;99.90
23540;DHT22;11947;50.810;4.394;2022-08-20T03:30:34;16.60;99.90
23540;DHT22;11947;50.810;4.394;2022-08-20T03:33:00;16.60;99.90
23540;DHT22;11947;50.810;4.394;2022-08-20T03:35:28;16.50;99.90
23540;DHT22;11947;50.810;4.394;2022-08-20T03:37:55;16.40;99.90
23540;DHT22;11947;50.810;4.394;2022-08-20T03:40:25;16.50;99.90
23540;DHT22;11947;50.810;4.394;2022-08-20T03:42:51;16.50;99.90
23540;DHT22;11947;50.810;4.394;2022-08-20T03:45:18;16.50;99.90
23540;DHT22;11947;50.810;4.394;2022-08-20T03:47:45;16.50;99.90
23540;DHT22;11947;50.810;4.394;2022-08-20T03:50:11;16.60;99.90
23540;DHT22;11947;50.810;4.394;2022-08-20T03:52:37;16.50;99.90
23540;DHT22;11947;50.810;4.394;2022-08-20T03:55:05;16.60;99.90
23540;DHT22;11947;50.810;4.394;2022-08-20T03:57:31;16.60;99.90
23540;DHT22;11947;50.810;4.394;2022-08-20T03:59:56;16.40;99.90
23540;DHT22;11947;50.810;4.394;2022-08-20T04:02:23;16.40;99.90
23540;DHT22;11947;50.810;4.394;2022-08-20T04:04:50;16.50;99.90
23540;DHT22;11947;50.810;4.394;2022-08-20T04:07:21;16.50;99.90
23540;DHT22;11947;50.810;4.394;2022-08-20T04:09:51;16.60;99.90
23540;DHT22;11947;50.810;4.394;2022-08-20T04:12:17;16.70;99.90
23540;DHT22;11947;50.810;4.394;2022-08-20T04:14:43;16.70;99.90
23540;DHT22;11947;50.810;4.394;2022-08-20T04:17:11;16.60;99.90
23540;DHT22;11947;50.810;4.394;2022-08-20T04:19:38;16.70;99.90
23540;DHT22;11947;50.810;4.394;2022-08-20T04:22:04;16.80;99.90
23540;DHT22;11947;50.810;4.394;2022-08-20T04:24:31;16.70;99.90
23540;DHT22;11947;50.810;4.394;2022-08-20T04:26:57;16.50;99.90
23540;DHT22;11947;50.810;4.394;2022-08-20T04:29:24;16.50;99.90
23540;DHT22;11947;50.810;4.394;2022-08-20T04:31:51;16.40;99.90
23540;DHT22;11947;50.810;4.394;2022-08-20T04:34:17;16.40;99.90
23540;DHT22;11947;50.810;4.394;2022-08-20T04:36:44;16.60;99.90
23540;DHT22;11947;50.810;4.394;2022-08-20T04:39:14;16.50;99.90
23540;DHT22;11947;50.810;4.394;2022-08-20T04:41:41;16.40;99.90
23540;DHT22;11947;50.810;4.394;2022-08-20T04:44:08;16.40;99.90
23540;DHT22;11947;50.810;4.394;2022-08-20T04:46:36;16.40;99.90
23540;DHT22;11947;50.810;4.394;2022-08-20T04:49:02;16.50;99.90
23540;DHT22;11947;50.810;4.394;2022-08-20T04:51:29;16.40;99.90
23540;DHT22;11947;50.810;4.394;2022-08-20T04:53:55;16.50;99.90
23540;DHT22;11947;50.810;4.394;2022-08-20T04:56:23;16.50;99.90
23540;DHT22;11947;50.810;4.394;2022-08-20T04:58:51;16.50;99.90
23540;DHT22;11947;50.810;4.394;2022-08-20T05:01:17;16.50;99.90
23540;DHT22;11947;50.810;4.394;2022-08-20T05:03:42;16.50;99.90
23540;DHT22;11947;50.810;4.394;2022-08-20T05:06:10;16.50;99.90
23540;DHT22;11947;50.810;4.394;2022-08-20T05:08:36;16.50;99.90
23540;DHT22;11947;50.810;4.394;2022-08-20T05:11:03;16.40;99.90
23540;DHT22;11947;50.810;4.394;2022-08-20T05:13:29;16.40;99.90
23540;DHT22;11947;50.810;4.394;2022-08-20T05:15:56;16.30;99.90
23540;DHT22;11947;50.810;4.394;2022-08-20T05:18:25;16.20;99.90
23540;DHT22;11947;50.810;4.394;2022-08-20T05:20:51;16.20;99.90
23540;DHT22;11947;50.810;4.394;2022-08-20T05:23:18;16.30;99.90
23540;DHT22;11947;50.810;4.394;2022-08-20T05:25:47;16.40;99.90
23540;DHT22;11947;50.810;4.394;2022-08-20T05:28:20;16.40;99.90
23540;DHT22;11947;50.810;4.394;2022-08-20T05:30:47;16.40;99.90
23540;DHT22;11947;50.810;4.394;2022-08-20T05:33:16;16.50;99.90
23540;DHT22;11947;50.810;4.394;2022-08-20T05:35:45;16.50;99.90
23540;DHT22;11947;50.810;4.394;2022-08-20T05:38:14;16.50;99.90
23540;DHT22;11947;50.810;4.394;2022-08-20T05:40:41;16.60;99.90
23540;DHT22;11947;50.810;4.394;2022-08-20T05:43:07;16.60;99.90
23540;DHT22;11947;50.810;4.394;2022-08-20T05:45:34;16.60;99.90
23540;DHT22;11947;50.810;4.394;2022-08-20T05:48:08;16.80;99.90
23540;DHT22;11947;50.810;4.394;2022-08-20T05:50:35;16.90;99.90
23540;DHT22;11947;50.810;4.394;2022-08-20T05:53:01;17.00;99.90
23540;DHT22;11947;50.810;4.394;2022-08-20T05:55:27;17.10;99.90
23540;DHT22;11947;50.810;4.394;2022-08-20T05:57:57;17.20;99.90
23540;DHT22;11947;50.810;4.394;2022-08-20T06:00:22;17.30;99.90
23540;DHT22;11947;50.810;4.394;2022-08-20T06:02:48;17.30;99.90
23540;DHT22;11947;50.810;4.394;2022-08-20T06:05:32;17.40;99.90
23540;DHT22;11947;50.810;4.394;2022-08-20T06:07:59;17.50;99.90
23540;DHT22;11947;50.810;4.394;2022-08-20T06:10:25;17.60;99.90
23540;DHT22;11947;50.810;4.394;2022-08-20T06:12:50;17.70;99.90
23540;DHT22;11947;50.810;4.394;2022-08-20T06:15:18;17.80;99.90
23540;DHT22;11947;50.810;4.394;2022-08-20T06:17:44;17.90;99.90
23540;DHT22;11947;50.810;4.394;2022-08-20T06:20:10;17.80;99.90
23540;DHT22;11947;50.810;4.394;2022-08-20T06:22:36;17.90;99.90
23540;DHT22;11947;50.810;4.394;2022-08-20T06:25:06;18.00;99.90
23540;DHT22;11947;50.810;4.394;2022-08-20T06:27:33;18.20;99.90
23540;DHT22;11947;50.810;4.394;2022-08-20T06:30:01;18.30;99.90
23540;DHT22;11947;50.810;4.394;2022-08-20T06:32:27;18.50;99.90
23540;DHT22;11947;50.810;4.394;2022-08-20T06:34:52;18.70;99.90
23540;DHT22;11947;50.810;4.394;2022-08-20T06:37:20;18.80;99.90
23540;DHT22;11947;50.810;4.394;2022-08-20T06:39:45;18.90;99.90
23540;DHT22;11947;50.810;4.394;2022-08-20T06:42:11;19.00;99.90
23540;DHT22;11947;50.810;4.394;2022-08-20T06:44:37;19.00;99.90
23540;DHT22;11947;50.810;4.394;2022-08-20T06:47:03;19.10;99.90
23540;DHT22;11947;50.810;4.394;2022-08-20T06:49:33;19.20;99.90
23540;DHT22;11947;50.810;4.394;2022-08-20T06:51:58;19.20;99.90
23540;DHT22;11947;50.810;4.394;2022-08-20T06:54:24;19.20;99.90
23540;DHT22;11947;50.810;4.394;2022-08-20T06:56:51;19.00;99.90
23540;DHT22;11947;50.810;4.394;2022-08-20T06:59:19;19.00;99.90
23540;DHT22;11947;50.810;4.394;2022-08-20T07:01:45;19.20;99.90
23540;DHT22;11947;50.810;4.394;2022-08-20T07:04:11;19.30;99.90
23540;DHT22;11947;50.810;4.394;2022-08-20T07:06:36;19.40;99.90
23540;DHT22;11947;50.810;4.394;2022-08-20T07:09:02;19.50;99.90
23540;DHT22;11947;50.810;4.394;2022-08-20T07:11:28;19.50;99.90
23540;DHT22;11947;50.810;4.394;2022-08-20T07:13:56;19.70;99.90
23540;DHT22;11947;50.810;4.394;2022-08-20T07:16:23;19.90;99.90
23540;DHT22;11947;50.810;4.394;2022-08-20T07:18:49;20.00;99.90
23540;DHT22;11947;50.810;4.394;2022-08-20T07:21:14;20.10;99.90
23540;DHT22;11947;50.810;4.394;2022-08-20T07:23:41;20.20;99.90
23540;DHT22;11947;50.810;4.394;2022-08-20T07:26:07;20.20;99.90
23540;DHT22;11947;50.810;4.394;2022-08-20T07:28:33;20.20;99.90
23540;DHT22;11947;50.810;4.394;2022-08-20T07:30:58;20.40;99.90
23540;DHT22;11947;50.810;4.394;2022-08-20T07:33:42;20.40;99.90
23540;DHT22;11947;50.810;4.394;2022-08-20T07:36:09;20.60;99.90
23540;DHT22;11947;50.810;4.394;2022-08-20T07:38:35;20.70;99.90
23540;DHT22;11947;50.810;4.394;2022-08-20T07:41:07;20.60;99.90
23540;DHT22;11947;50.810;4.394;2022-08-20T07:43:34;20.70;99.90
23540;DHT22;11947;50.810;4.394;2022-08-20T07:46:01;20.80;99.90
23540;DHT22;11947;50.810;4.394;2022-08-20T07:48:32;20.80;99.90
23540;DHT22;11947;50.810;4.394;2022-08-20T07:50:59;20.90;99.90
23540;DHT22;11947;50.810;4.394;2022-08-20T07:53:26;20.90;99.90
23540;DHT22;11947;50.810;4.394;2022-08-20T07:55:52;21.00;99.90
23540;DHT22;11947;50.810;4.394;2022-08-20T07:58:19;21.10;99.90
23540;DHT22;11947;50.810;4.394;2022-08-20T08:00:46;21.20;99.90
23540;DHT22;11947;50.810;4.394;2022-08-20T08:03:12;21.30;99.90
23540;DHT22;11947;50.810;4.394;2022-08-20T08:05:40;21.50;99.90
23540;DHT22;11947;50.810;4.394;2022-08-20T08:08:17;21.50;99.90
23540;DHT22;11947;50.810;4.394;2022-08-20T08:10:46;21.70;99.90
23540;DHT22;11947;50.810;4.394;2022-08-20T08:13:13;21.80;99.90
23540;DHT22;11947;50.810;4.394;2022-08-20T08:15:43;21.90;99.90
23540;DHT22;11947;50.810;4.394;2022-08-20T08:18:14;22.00;99.90
23540;DHT22;11947;50.810;4.394;2022-08-20T08:20:42;22.00;99.90
23540;DHT22;11947;50.810;4.394;2022-08-20T08:23:09;22.00;99.90
23540;DHT22;11947;50.810;4.394;2022-08-20T08:25:39;22.00;99.90
23540;DHT22;11947;50.810;4.394;2022-08-20T08:28:06;22.00;99.90
23540;DHT22;11947;50.810;4.394;2022-08-20T08:30:32;22.10;99.90
23540;DHT22;11947;50.810;4.394;2022-08-20T08:32:58;22.10;99.90
23540;DHT22;11947;50.810;4.394;2022-08-20T08:35:42;22.30;99.90
23540;DHT22;11947;50.810;4.394;2022-08-20T08:38:11;22.40;99.90
23540;DHT22;11947;50.810;4.394;2022-08-20T08:40:37;22.50;99.90
23540;DHT22;11947;50.810;4.394;2022-08-20T08:43:03;22.60;99.90
23540;DHT22;11947;50.810;4.394;2022-08-20T08:45:42;22.60;99.90
23540;DHT22;11947;50.810;4.394;2022-08-20T08:48:11;22.80;99.90
23540;DHT22;11947;50.810;4.394;2022-08-20T08:50:39;22.90;99.90
23540;DHT22;11947;50.810;4.394;2022-08-20T08:53:09;23.00;99.90
23540;DHT22;11947;50.810;4.394;2022-08-20T08:55:35;23.20;99.90
23540;DHT22;11947;50.810;4.394;2022-08-20T08:58:02;23.40;99.90
23540;DHT22;11947;50.810;4.394;2022-08-20T09:00:29;23.60;99.90
23540;DHT22;11947;50.810;4.394;2022-08-20T09:03:19;23.60;99.90
23540;DHT22;11947;50.810;4.394;2022-08-20T09:05:53;23.80;99.90
23540;DHT22;11947;50.810;4.394;2022-08-20T09:08:33;24.10;99.90
23540;DHT22;11947;50.810;4.394;2022-08-20T09:11:02;24.30;99.90
23540;DHT22;11947;50.810;4.394;2022-08-20T09:13:29;24.40;99.90
23540;DHT22;11947;50.810;4.394;2022-08-20T09:15:55;24.60;99.90
23540;DHT22;11947;50.810;4.394;2022-08-20T09:18:20;24.70;99.90
23540;DHT22;11947;50.810;4.394;2022-08-20T09:20:46;25.00;99.90
23540;DHT22;11947;50.810;4.394;2022-08-20T09:23:11;25.10;99.90
23540;DHT22;11947;50.810;4.394;2022-08-20T09:25:37;25.20;99.90
23540;DHT22;11947;50.810;4.394;2022-08-20T09:28:06;25.20;99.90
23540;DHT22;11947;50.810;4.394;2022-08-20T09:30:31;25.30;99.90
23540;DHT22;11947;50.810;4.394;2022-08-20T09:32:58;25.10;99.90
23540;DHT22;11947;50.810;4.394;2022-08-20T09:35:24;24.90;99.90
23540;DHT22;11947;50.810;4.394;2022-08-20T09:37:50;24.60;99.90
23540;DHT22;11947;50.810;4.394;2022-08-20T09:40:17;24.60;99.90
23540;DHT22;11947;50.810;4.394;2022-08-20T09:42:43;24.80;99.90
23540;DHT22;11947;50.810;4.394;2022-08-20T09:45:10;25.30;99.90
23540;DHT22;11947;50.810;4.394;2022-08-20T09:47:36;25.80;99.90
23540;DHT22;11947;50.810;4.394;2022-08-20T09:50:03;25.70;99.90
23540;DHT22;11947;50.810;4.394;2022-08-20T09:52:31;25.20;99.90
23540;DHT22;11947;50.810;4.394;2022-08-20T09:55:03;24.80;99.90
23540;DHT22;11947;50.810;4.394;2022-08-20T09:57:30;24.40;99.90
23540;DHT22;11947;50.810;4.394;2022-08-20T09:59:59;24.40;99.90
23540;DHT22;11947;50.810;4.394;2022-08-20T10:02:25;24.30;99.90
23540;DHT22;11947;50.810;4.394;2022-08-20T10:04:51;24.90;99.90
23540;DHT22;11947;50.810;4.394;2022-08-20T10:07:17;26.00;99.90
23540;DHT22;11947;50.810;4.394;2022-08-20T10:09:43;27.20;99.90
23540;DHT22;11947;50.810;4.394;2022-08-20T10:12:08;28.50;99.90
23540;DHT22;11947;50.810;4.394;2022-08-20T10:14:34;29.90;99.90
23540;DHT22;11947;50.810;4.394;2022-08-20T10:17:02;30.50;99.90
23540;DHT22;11947;50.810;4.394;2022-08-20T10:19:29;29.90;99.90
23540;DHT22;11947;50.810;4.394;2022-08-20T10:21:55;29.80;99.90
23540;DHT22;11947;50.810;4.394;2022-08-20T10:24:22;30.80;98.10
23540;DHT22;11947;50.810;4.394;2022-08-20T10:26:48;32.10;95.90
23540;DHT22;11947;50.810;4.394;2022-08-20T10:29:14;33.30;92.50
23540;DHT22;11947;50.810;4.394;2022-08-20T10:31:40;35.00;92.70
23540;DHT22;11947;50.810;4.394;2022-08-20T10:34:06;36.70;88.40
23540;DHT22;11947;50.810;4.394;2022-08-20T10:36:31;37.60;80.40
23540;DHT22;11947;50.810;4.394;2022-08-20T10:38:57;38.60;76.30
23540;DHT22;11947;50.810;4.394;2022-08-20T10:41:23;39.00;70.80
23540;DHT22;11947;50.810;4.394;2022-08-20T10:43:48;40.50;73.70
23540;DHT22;11947;50.810;4.394;2022-08-20T10:46:15;40.40;67.60
23540;DHT22;11947;50.810;4.394;2022-08-20T10:48:41;39.00;69.70
23540;DHT22;11947;50.810;4.394;2022-08-20T10:51:07;39.00;66.40
23540;DHT22;11947;50.810;4.394;2022-08-20T10:53:33;39.60;67.20
23540;DHT22;11947;50.810;4.394;2022-08-20T10:55:59;41.10;64.50
23540;DHT22;11947;50.810;4.394;2022-08-20T10:58:25;42.20;63.80
23540;DHT22;11947;50.810;4.394;2022-08-20T11:00:53;43.10;58.00
23540;DHT22;11947;50.810;4.394;2022-08-20T11:03:19;44.60;57.20
23540;DHT22;11947;50.810;4.394;2022-08-20T11:05:45;45.70;52.90
23540;DHT22;11947;50.810;4.394;2022-08-20T11:08:11;46.00;53.30
23540;DHT22;11947;50.810;4.394;2022-08-20T11:10:37;46.30;52.00
23540;DHT22;11947;50.810;4.394;2022-08-20T11:13:04;46.80;50.70
23540;DHT22;11947;50.810;4.394;2022-08-20T11:15:34;46.90;49.90
23540;DHT22;11947;50.810;4.394;2022-08-20T11:18:00;46.70;47.10
23540;DHT22;11947;50.810;4.394;2022-08-20T11:20:26;45.90;51.00
23540;DHT22;11947;50.810;4.394;2022-08-20T11:22:52;46.50;51.50
23540;DHT22;11947;50.810;4.394;2022-08-20T11:25:19;46.20;47.80
23540;DHT22;11947;50.810;4.394;2022-08-20T11:27:47;46.50;48.40
23540;DHT22;11947;50.810;4.394;2022-08-20T11:30:17;46.80;47.60
23540;DHT22;11947;50.810;4.394;2022-08-20T11:32:43;46.60;47.50
23540;DHT22;11947;50.810;4.394;2022-08-20T11:35:09;46.30;46.20
23540;DHT22;11947;50.810;4.394;2022-08-20T11:37:35;44.30;49.90
23540;DHT22;11947;50.810;4.394;2022-08-20T11:40:00;44.80;48.50
23540;DHT22;11947;50.810;4.394;2022-08-20T11:42:26;46.00;49.30
23540;DHT22;11947;50.810;4.394;2022-08-20T11:44:52;46.50;48.60
23540;DHT22;11947;50.810;4.394;2022-08-20T11:47:23;46.90;47.40
23540;DHT22;11947;50.810;4.394;2022-08-20T11:49:56;46.40;48.10
23540;DHT22;11947;50.810;4.394;2022-08-20T11:52:22;46.70;46.40
23540;DHT22;11947;50.810;4.394;2022-08-20T11:54:48;47.70;43.50
23540;DHT22;11947;50.810;4.394;2022-08-20T11:57:22;46.40;44.60
23540;DHT22;11947;50.810;4.394;2022-08-20T11:59:52;46.60;45.70
23540;DHT22;11947;50.810;4.394;2022-08-20T12:02:18;48.20;46.10
23540;DHT22;11947;50.810;4.394;2022-08-20T12:04:44;49.20;42.00
23540;DHT22;11947;50.810;4.394;2022-08-20T12:07:11;46.80;43.30
23540;DHT22;11947;50.810;4.394;2022-08-20T12:09:37;44.60;44.40
23540;DHT22;11947;50.810;4.394;2022-08-20T12:12:03;42.60;46.40
23540;DHT22;11947;50.810;4.394;2022-08-20T12:14:29;40.90;48.10
23540;DHT22;11947;50.810;4.394;2022-08-20T12:16:55;42.10;49.70
23540;DHT22;11947;50.810;4.394;2022-08-20T12:19:20;43.50;47.10
23540;DHT22;11947;50.810;4.394;2022-08-20T12:21:46;42.90;47.20
23540;DHT22;11947;50.810;4.394;2022-08-20T12:24:12;40.20;49.00
23540;DHT22;11947;50.810;4.394;2022-08-20T12:26:37;39.90;50.20
23540;DHT22;11947;50.810;4.394;2022-08-20T12:29:03;40.00;51.90
23540;DHT22;11947;50.810;4.394;2022-08-20T12:31:29;40.20;53.00
23540;DHT22;11947;50.810;4.394;2022-08-20T12:33:54;42.00;51.00
23540;DHT22;11947;50.810;4.394;2022-08-20T12:36:20;43.80;47.80
23540;DHT22;11947;50.810;4.394;2022-08-20T12:38:45;44.60;46.80
23540;DHT22;11947;50.810;4.394;2022-08-20T12:41:11;45.50;45.50
23540;DHT22;11947;50.810;4.394;2022-08-20T12:43:37;46.60;46.30
23540;DHT22;11947;50.810;4.394;2022-08-20T12:46:02;47.60;42.70
23540;DHT22;11947;50.810;4.394;2022-08-20T12:48:28;47.10;41.20
23540;DHT22;11947;50.810;4.394;2022-08-20T12:50:54;46.70;43.20
23540;DHT22;11947;50.810;4.394;2022-08-20T12:53:19;47.10;43.40
23540;DHT22;11947;50.810;4.394;2022-08-20T12:55:45;46.60;42.60
23540;DHT22;11947;50.810;4.394;2022-08-20T12:58:11;46.20;42.80
23540;DHT22;11947;50.810;4.394;2022-08-20T13:00:40;47.00;44.70
23540;DHT22;11947;50.810;4.394;2022-08-20T13:03:08;47.30;42.20
23540;DHT22;11947;50.810;4.394;2022-08-20T13:05:35;48.00;44.00
23540;DHT22;11947;50.810;4.394;2022-08-20T13:08:09;48.50;41.40
23540;DHT22;11947;50.810;4.394;2022-08-20T13:10:38;47.60;43.20
23540;DHT22;11947;50.810;4.394;2022-08-20T13:13:09;46.60;41.90
23540;DHT22;11947;50.810;4.394;2022-08-20T13:15:34;44.80;44.30
23540;DHT22;11947;50.810;4.394;2022-08-20T13:18:02;44.30;44.00
23540;DHT22;11947;50.810;4.394;2022-08-20T13:20:28;44.20;44.10
23540;DHT22;11947;50.810;4.394;2022-08-20T13:22:54;44.20;44.00
23540;DHT22;11947;50.810;4.394;2022-08-20T13:25:22;43.80;45.20
23540;DHT22;11947;50.810;4.394;2022-08-20T13:27:48;43.60;43.20
23540;DHT22;11947;50.810;4.394;2022-08-20T13:30:17;42.40;45.10
23540;DHT22;11947;50.810;4.394;2022-08-20T13:32:43;41.20;45.50
23540;DHT22;11947;50.810;4.394;2022-08-20T13:35:10;39.90;48.00
23540;DHT22;11947;50.810;4.394;2022-08-20T13:37:39;39.30;49.90
23540;DHT22;11947;50.810;4.394;2022-08-20T13:40:05;39.80;50.80
23540;DHT22;11947;50.810;4.394;2022-08-20T13:42:33;41.10;46.30
23540;DHT22;11947;50.810;4.394;2022-08-20T13:44:58;40.60;48.70
23540;DHT22;11947;50.810;4.394;2022-08-20T13:47:32;38.90;51.00
23540;DHT22;11947;50.810;4.394;2022-08-20T13:50:06;38.60;50.20
23540;DHT22;11947;50.810;4.394;2022-08-20T13:52:34;38.20;49.70
23540;DHT22;11947;50.810;4.394;2022-08-20T13:55:00;37.10;54.10
23540;DHT22;11947;50.810;4.394;2022-08-20T13:57:25;35.80;52.90
23540;DHT22;11947;50.810;4.394;2022-08-20T13:59:54;35.80;55.00
23540;DHT22;11947;50.810;4.394;2022-08-20T14:02:20;38.00;53.60
23540;DHT22;11947;50.810;4.394;2022-08-20T14:04:46;40.30;50.20
23540;DHT22;11947;50.810;4.394;2022-08-20T14:07:19;41.20;48.30
23540;DHT22;11947;50.810;4.394;2022-08-20T14:09:47;40.50;49.80
23540;DHT22;11947;50.810;4.394;2022-08-20T14:12:14;40.50;49.80
23540;DHT22;11947;50.810;4.394;2022-08-20T14:14:41;41.70;49.20
23540;DHT22;11947;50.810;4.394;2022-08-20T14:17:17;41.80;46.70
23540;DHT22;11947;50.810;4.394;2022-08-20T14:19:44;42.30;48.60
23540;DHT22;11947;50.810;4.394;2022-08-20T14:22:10;43.40;46.40
23540;DHT22;11947;50.810;4.394;2022-08-20T14:24:35;43.80;46.40
23540;DHT22;11947;50.810;4.394;2022-08-20T14:27:05;44.00;46.00
23540;DHT22;11947;50.810;4.394;2022-08-20T14:29:38;44.20;44.60
23540;DHT22;11947;50.810;4.394;2022-08-20T14:32:04;43.60;45.60
23540;DHT22;11947;50.810;4.394;2022-08-20T14:34:31;41.60;46.00
23540;DHT22;11947;50.810;4.394;2022-08-20T14:37:07;40.20;48.10
23540;DHT22;11947;50.810;4.394;2022-08-20T14:39:34;40.20;48.60
23540;DHT22;11947;50.810;4.394;2022-08-20T14:41:59;40.80;46.30
23540;DHT22;11947;50.810;4.394;2022-08-20T14:44:25;41.90;46.50
23540;DHT22;11947;50.810;4.394;2022-08-20T14:46:50;41.50;46.90
23540;DHT22;11947;50.810;4.394;2022-08-20T14:49:16;39.90;48.00
23540;DHT22;11947;50.810;4.394;2022-08-20T14:51:41;37.90;50.80
23540;DHT22;11947;50.810;4.394;2022-08-20T14:54:07;36.50;51.70
23540;DHT22;11947;50.810;4.394;2022-08-20T14:56:33;35.40;53.20
23540;DHT22;11947;50.810;4.394;2022-08-20T14:58:58;34.30;54.80
23540;DHT22;11947;50.810;4.394;2022-08-20T15:01:24;33.70;55.70
23540;DHT22;11947;50.810;4.394;2022-08-20T15:03:49;33.00;56.70
23540;DHT22;11947;50.810;4.394;2022-08-20T15:06:15;32.30;58.20
23540;DHT22;11947;50.810;4.394;2022-08-20T15:08:41;31.70;59.70
23540;DHT22;11947;50.810;4.394;2022-08-20T15:11:06;31.00;60.90
23540;DHT22;11947;50.810;4.394;2022-08-20T15:13:33;30.50;63.50
23540;DHT22;11947;50.810;4.394;2022-08-20T15:15:58;30.20;63.60
23540;DHT22;11947;50.810;4.394;2022-08-20T15:18:24;29.80;63.90
23540;DHT22;11947;50.810;4.394;2022-08-20T15:20:51;29.40;71.80
23540;DHT22;11947;50.810;4.394;2022-08-20T15:23:16;29.20;67.30
23540;DHT22;11947;50.810;4.394;2022-08-20T15:25:42;28.90;69.00
23540;DHT22;11947;50.810;4.394;2022-08-20T15:28:08;28.50;66.10
23540;DHT22;11947;50.810;4.394;2022-08-20T15:30:35;28.40;68.20
23540;DHT22;11947;50.810;4.394;2022-08-20T15:33:01;28.20;70.00
23540;DHT22;11947;50.810;4.394;2022-08-20T15:35:27;28.10;69.20
23540;DHT22;11947;50.810;4.394;2022-08-20T15:37:55;28.00;70.60